createdAt,value
2023-11-01T00:02:54.638Z,77.02
2023-11-01T00:05:59.169Z,76.19
2023-11-01T00:09:03.819Z,76.43
2023-11-01T00:12:08.375Z,76.50
2023-11-01T00:15:12.497Z,77.61
2023-11-01T00:18:16.640Z,77.01
2023-11-01T00:21:20.907Z,75.86
2023-11-01T00:24:25.486Z,77.49
2023-11-01T00:27:33.295Z,77.20
2023-11-01T00:30:37.621Z,78.10
2023-11-01T00:33:41.681Z,79.53
2023-11-01T00:36:45.783Z,80.35
2023-11-01T00:39:50.212Z,80.15
2023-11-01T00:42:54.614Z,78.75
2023-11-01T00:45:58.766Z,81.18
2023-11-01T00:49:02.640Z,79.68
2023-11-01T00:52:06.982Z,79.50
2023-11-01T00:55:11.131Z,80.11
2023-11-01T00:58:15.283Z,79.04
2023-11-01T01:01:19.303Z,79.15
2023-11-01T01:04:23.283Z,79.34
2023-11-01T01:07:27.958Z,82.82
2023-11-01T01:10:32.055Z,79.61
2023-11-01T01:13:36.369Z,78.07
2023-11-01T01:16:40.306Z,76.80
2023-11-01T01:19:44.222Z,77.40
2023-11-01T01:22:48.441Z,79.40
2023-11-01T01:25:52.593Z,80.13
2023-11-01T01:28:56.949Z,81.69
2023-11-01T01:32:01.132Z,82.27
2023-11-01T01:35:05.570Z,82.31
2023-11-01T01:38:09.498Z,80.90
2023-11-01T01:41:13.759Z,81.08
2023-11-01T01:44:17.662Z,82.31
2023-11-01T01:47:21.611Z,80.84
2023-11-01T01:50:25.819Z,82.06
2023-11-01T01:53:30.195Z,83.49
2023-11-01T01:56:35.579Z,81.93
2023-11-01T01:59:40.082Z,83.34
2023-11-01T02:02:44.053Z,82.88
2023-11-01T02:05:48.483Z,84.52
2023-11-01T02:08:52.571Z,81.90
2023-11-01T02:11:56.974Z,79.64
2023-11-01T02:15:01.551Z,79.91
2023-11-01T02:18:06.082Z,80.95
2023-11-01T02:21:09.978Z,79.50
2023-11-01T02:24:14.232Z,81.23
2023-11-01T02:27:18.179Z,80.81
2023-11-01T02:30:22.649Z,80.02
2023-11-01T02:33:26.800Z,79.15
2023-11-01T02:36:30.933Z,76.83
2023-11-01T02:39:35.171Z,75.95
2023-11-01T02:42:47.173Z,76.27
2023-11-01T02:45:51.299Z,76.33
2023-11-01T02:48:55.901Z,77.86
2023-11-01T02:51:59.983Z,77.72
2023-11-01T02:55:08.402Z,79.90
2023-11-01T02:58:12.208Z,79.01
2023-11-01T03:01:18.214Z,78.35
2023-11-01T03:04:22.284Z,79.33
2023-11-01T03:07:26.570Z,77.22
2023-11-01T03:10:31.937Z,77.14
2023-11-01T03:13:36.365Z,77.89
2023-11-01T03:16:40.460Z,79.08
2023-11-01T03:19:44.873Z,77.76
2023-11-01T03:22:49.315Z,78.73
2023-11-01T03:25:53.171Z,79.52
2023-11-01T03:28:57.732Z,79.95
2023-11-01T03:32:01.498Z,79.54
2023-11-01T03:35:06.046Z,78.32
2023-11-01T03:38:10.429Z,77.65
2023-11-01T03:41:14.600Z,78.85
2023-11-01T03:44:18.726Z,78.34
2023-11-01T03:47:22.891Z,78.71
2023-11-01T03:50:27.174Z,80.23
2023-11-01T03:53:31.862Z,79.05
2023-11-01T03:56:35.928Z,79.70
2023-11-01T03:59:39.977Z,78.96
2023-11-01T04:02:44.717Z,78.52
2023-11-01T04:05:48.648Z,78.35
2023-11-01T04:08:52.724Z,76.63
2023-11-01T04:11:56.890Z,76.83
2023-11-01T04:15:00.863Z,76.46
2023-11-01T04:18:05.249Z,75.77
2023-11-01T04:21:09.225Z,78.86
2023-11-01T04:24:13.527Z,77.66
2023-11-01T04:27:17.755Z,78.75
2023-11-01T04:30:21.641Z,79.64
2023-11-01T04:33:26.182Z,80.88
2023-11-01T04:36:30.466Z,80.24
2023-11-01T04:39:34.641Z,79.89
2023-11-01T04:42:42.723Z,79.31
2023-11-01T04:45:47.862Z,78.27
2023-11-01T04:48:51.726Z,79.20
2023-11-01T04:51:56.154Z,80.88
2023-11-01T04:55:00.354Z,80.26
2023-11-01T04:58:04.684Z,82.13
2023-11-01T05:01:09.322Z,82.60
2023-11-01T05:04:13.433Z,80.44
2023-11-01T05:07:17.977Z,81.86
2023-11-01T05:10:22.178Z,79.39
2023-11-01T05:13:26.636Z,80.61
2023-11-01T05:16:30.764Z,80.27
2023-11-01T05:19:34.860Z,82.82
2023-11-01T05:22:39.150Z,81.40
2023-11-01T05:25:43.647Z,82.43
2023-11-01T05:28:47.996Z,84.36
2023-11-01T05:31:52.317Z,85.57
2023-11-01T05:34:56.130Z,83.70
2023-11-01T05:38:00.067Z,84.11
2023-11-01T05:41:04.608Z,82.70
2023-11-01T05:44:08.750Z,83.88
2023-11-01T05:47:12.556Z,83.43
2023-11-01T05:50:20.861Z,84.70
2023-11-01T05:53:24.628Z,81.72
2023-11-01T05:56:29.139Z,81.90
2023-11-01T05:59:33.587Z,82.61
2023-11-01T06:02:41.035Z,83.16
2023-11-01T06:05:44.977Z,81.50
2023-11-01T06:08:49.013Z,83.96
2023-11-01T06:11:53.489Z,84.82
2023-11-01T06:14:57.536Z,83.11
2023-11-01T06:18:02.058Z,81.25
2023-11-01T06:21:09.252Z,85.88
2023-11-01T06:24:15.007Z,82.32
2023-11-01T06:27:18.990Z,82.18
2023-11-01T06:30:23.112Z,84.51
2023-11-01T06:33:27.363Z,84.09
2023-11-01T06:36:31.618Z,83.66
2023-11-01T06:39:36.208Z,83.68
2023-11-01T06:42:40.608Z,86.31
2023-11-01T06:45:44.907Z,86.94
2023-11-01T06:48:49.070Z,85.05
2023-11-01T06:51:53.495Z,87.18
2023-11-01T06:54:57.751Z,87.14
2023-11-01T06:58:01.968Z,85.97
2023-11-01T07:01:07.519Z,85.84
2023-11-01T07:04:12.288Z,86.13
2023-11-01T07:07:18.587Z,84.26
2023-11-01T07:10:24.428Z,84.70
2023-11-01T07:13:29.107Z,84.15
2023-11-01T07:16:35.371Z,86.42
2023-11-01T07:19:39.626Z,86.77
2023-11-01T07:22:44.328Z,85.05
2023-11-01T07:25:48.840Z,84.80
2023-11-01T07:28:53.307Z,85.55
2023-11-01T07:31:57.703Z,83.50
2023-11-01T07:35:03.539Z,84.13
2023-11-01T07:38:07.376Z,82.58
2023-11-01T07:41:11.957Z,82.71
2023-11-01T07:44:16.280Z,81.62
2023-11-01T07:47:20.436Z,80.78
2023-11-01T07:50:27.406Z,80.99
2023-11-01T07:53:31.824Z,82.14
2023-11-01T07:56:37.033Z,80.09
2023-11-01T07:59:41.229Z,80.24
2023-11-01T08:02:45.613Z,81.63
2023-11-01T08:05:49.896Z,79.46
2023-11-01T08:08:54.384Z,77.94
2023-11-01T08:11:58.260Z,77.21
2023-11-01T08:15:02.658Z,76.85
2023-11-01T08:18:07.052Z,76.27
2023-11-01T08:21:12.694Z,73.56
2023-11-01T08:24:16.840Z,73.25
2023-11-01T08:27:20.880Z,73.38
2023-11-01T08:30:25.230Z,71.02
2023-11-01T08:33:29.464Z,69.75
2023-11-01T08:36:33.827Z,66.94
2023-11-01T08:39:37.991Z,64.03
2023-11-01T08:42:41.926Z,67.70
2023-11-01T08:45:46.093Z,66.35
2023-11-01T08:48:51.400Z,63.98
2023-11-01T08:51:56.555Z,65.62
2023-11-01T08:55:01.365Z,64.18
2023-11-01T08:58:05.428Z,62.35
2023-11-01T09:01:09.583Z,62.01
2023-11-01T09:04:15.255Z,63.51
2023-11-01T09:07:19.701Z,61.97
2023-11-01T09:10:23.888Z,65.48
2023-11-01T09:13:28.009Z,62.27
2023-11-01T09:16:33.056Z,63.78
2023-11-01T09:19:37.564Z,64.90
2023-11-01T09:22:41.900Z,64.42
2023-11-01T09:25:46.306Z,61.02
2023-11-01T09:28:50.588Z,55.89
2023-11-01T09:31:55.547Z,57.80
2023-11-01T09:34:59.744Z,51.97
2023-11-01T09:38:04.358Z,43.81
2023-11-01T09:41:08.990Z,49.20
2023-11-01T09:44:16.624Z,51.03
2023-11-01T09:47:21.042Z,54.21
2023-11-01T09:50:24.777Z,56.66
2023-11-01T09:53:28.977Z,57.97
2023-11-01T09:56:34.795Z,57.24
2023-11-01T09:59:39.706Z,57.34
2023-11-01T10:02:43.734Z,58.97
2023-11-01T10:05:47.796Z,60.11
2023-11-01T10:08:51.836Z,59.63
2023-11-01T10:11:58.027Z,60.13
2023-11-01T10:15:03.473Z,63.67
2023-11-01T10:18:08.217Z,62.14
2023-11-01T10:21:12.372Z,61.75
2023-11-01T10:24:16.490Z,62.92
2023-11-01T10:27:21.033Z,62.09
2023-11-01T10:30:25.046Z,58.84
2023-11-01T10:33:29.458Z,50.44
2023-11-01T10:36:51.967Z,43.82
2023-11-01T10:39:55.902Z,45.07
2023-11-01T10:43:02.713Z,45.18
2023-11-01T10:46:07.558Z,50.04
2023-11-01T10:49:13.044Z,51.91
2023-11-01T10:52:17.723Z,56.92
2023-11-01T10:55:22.757Z,57.51
2023-11-01T10:58:30.869Z,59.77
2023-11-01T11:01:42.972Z,58.34
2023-11-01T11:04:59.009Z,57.27
2023-11-01T11:08:10.761Z,57.27
2023-11-01T11:11:18.252Z,56.71
2023-11-01T11:14:54.065Z,46.46
2023-11-01T11:18:08.158Z,38.73
2023-11-01T11:21:46.433Z,34.59
2023-11-01T11:24:56.701Z,36.10
2023-11-01T11:28:03.468Z,33.23
2023-11-01T11:31:19.407Z,27.42
2023-11-01T11:34:23.816Z,29.63
2023-11-01T11:37:32.180Z,32.58
2023-11-01T11:40:36.778Z,26.05
2023-11-01T11:44:09.399Z,30.23
2023-11-01T11:47:30.109Z,31.44
2023-11-01T11:50:34.500Z,32.23
2023-11-01T11:53:41.437Z,42.56
2023-11-01T11:56:45.929Z,43.08
2023-11-01T11:59:50.292Z,42.88
2023-11-01T12:02:54.355Z,43.91
2023-11-01T12:06:02.681Z,44.55
2023-11-01T12:09:21.171Z,48.27
2023-11-01T12:12:25.732Z,49.20
2023-11-01T12:15:41.059Z,50.77
2023-11-01T12:18:45.139Z,51.92
2023-11-01T12:21:57.377Z,50.86
2023-11-01T12:25:01.287Z,52.78
2023-11-01T12:28:05.732Z,52.22
2023-11-01T12:31:16.800Z,53.27
2023-11-01T12:34:21.291Z,52.95
2023-11-01T12:37:27.917Z,54.21
2023-11-01T12:40:37.399Z,53.05
2023-11-01T12:43:52.911Z,52.98
2023-11-01T12:46:58.089Z,53.54
2023-11-01T12:50:02.381Z,53.45
2023-11-01T12:53:06.821Z,55.85
2023-11-01T12:56:10.925Z,56.98
2023-11-01T12:59:15.032Z,54.97
2023-11-01T13:02:23.850Z,55.82
2023-11-01T13:05:27.864Z,56.39
2023-11-01T13:08:32.051Z,53.92
2023-11-01T13:11:39.102Z,54.60
2023-11-01T13:14:43.460Z,57.81
2023-11-01T13:17:49.326Z,57.65
2023-11-01T13:20:53.987Z,56.29
2023-11-01T13:23:58.156Z,56.21
2023-11-01T13:27:09.828Z,55.55
2023-11-01T13:30:14.457Z,54.88
2023-11-01T13:33:18.969Z,54.99
2023-11-01T13:36:26.570Z,54.05
2023-11-01T13:39:32.511Z,54.36
2023-11-01T13:42:36.862Z,55.04
2023-11-01T13:45:41.235Z,54.67
2023-11-01T13:48:45.514Z,52.17
2023-11-01T13:51:50.926Z,52.94
2023-11-01T13:54:54.874Z,53.27
2023-11-01T13:57:58.922Z,51.87
2023-11-01T14:01:03.950Z,52.57
2023-11-01T14:04:08.174Z,52.41
2023-11-01T14:07:12.222Z,53.71
2023-11-01T14:10:17.427Z,52.56
2023-11-01T14:13:21.616Z,53.40
2023-11-01T14:16:25.950Z,53.93
2023-11-01T14:19:30.257Z,54.92
2023-11-01T14:22:34.525Z,55.14
2023-11-01T14:25:38.277Z,54.71
2023-11-01T14:28:42.462Z,56.60
2023-11-01T14:31:46.799Z,57.19
2023-11-01T14:34:50.642Z,57.89
2023-11-01T14:37:55.916Z,57.44
2023-11-01T14:41:01.847Z,57.95
2023-11-01T14:44:06.636Z,56.29
2023-11-01T14:47:10.796Z,56.58
2023-11-01T14:50:16.568Z,57.67
2023-11-01T14:53:21.222Z,57.17
2023-11-01T14:56:25.021Z,56.04
2023-11-01T14:59:29.291Z,57.62
2023-11-01T15:02:33.464Z,57.16
2023-11-01T15:05:37.504Z,59.26
2023-11-01T15:08:42.172Z,57.98
2023-11-01T15:11:49.750Z,58.84
2023-11-01T15:14:53.953Z,59.25
2023-11-01T15:17:58.042Z,58.84
2023-11-01T15:21:02.777Z,59.56
2023-11-01T15:24:07.905Z,58.33
2023-11-01T15:27:11.816Z,58.58
2023-11-01T15:30:16.708Z,58.60
2023-11-01T15:33:21.056Z,59.01
2023-11-01T15:36:25.378Z,59.28
2023-11-01T15:39:29.761Z,59.75
2023-11-01T15:42:34.730Z,59.37
2023-11-01T15:45:38.927Z,57.84
2023-11-01T15:48:43.019Z,59.42
2023-11-01T15:51:47.771Z,58.99
2023-11-01T15:54:52.362Z,59.53
2023-11-01T15:57:56.852Z,58.52
2023-11-01T16:01:01.837Z,59.30
2023-11-01T16:04:06.265Z,60.07
2023-11-01T16:07:10.187Z,59.79
2023-11-01T16:10:14.575Z,59.84
2023-11-01T16:13:18.969Z,58.99
2023-11-01T16:16:23.168Z,58.77
2023-11-01T16:19:27.884Z,60.19
2023-11-01T16:22:31.782Z,58.61
2023-11-01T16:25:36.331Z,59.00
2023-11-01T16:28:40.328Z,59.24
2023-11-01T16:31:44.758Z,60.25
2023-11-01T16:34:48.897Z,60.84
2023-11-01T16:37:53.519Z,59.23
2023-11-01T16:40:57.447Z,59.40
2023-11-01T16:44:01.729Z,60.04
2023-11-01T16:47:06.222Z,59.98
2023-11-01T16:50:10.697Z,60.20
2023-11-01T16:53:14.800Z,58.58
2023-11-01T16:56:19.222Z,59.84
2023-11-01T16:59:23.758Z,60.93
2023-11-01T17:02:31.490Z,60.65
2023-11-01T17:05:38.707Z,60.10
2023-11-01T17:08:43.058Z,60.35
2023-11-01T17:11:47.692Z,60.09
2023-11-01T17:14:53.395Z,60.37
2023-11-01T17:17:57.544Z,59.88
2023-11-01T17:21:02.019Z,59.00
2023-11-01T17:24:07.522Z,59.48
2023-11-01T17:27:11.487Z,60.41
2023-11-01T17:30:18.825Z,59.06
2023-11-01T17:33:24.766Z,59.82
2023-11-01T17:36:29.904Z,61.24
2023-11-01T17:39:41.914Z,61.45
2023-11-01T17:42:46.025Z,59.84
2023-11-01T17:45:50.496Z,61.34
2023-11-01T17:48:55.204Z,62.66
2023-11-01T17:51:59.254Z,63.53
2023-11-01T17:55:05.501Z,66.48
2023-11-01T17:58:10.322Z,70.23
2023-11-01T18:01:14.624Z,70.79
2023-11-01T18:04:22.369Z,71.22
2023-11-01T18:07:27.475Z,72.07
2023-11-01T18:10:39.329Z,72.67
2023-11-01T18:13:47.015Z,74.17
2023-11-01T18:16:51.050Z,74.96
2023-11-01T18:19:56.185Z,76.20
2023-11-01T18:23:00.405Z,76.65
2023-11-01T18:26:08.872Z,79.55
2023-11-01T18:29:15.000Z,79.88
2023-11-01T18:32:18.844Z,81.82
2023-11-01T18:35:30.733Z,81.97
2023-11-01T18:38:51.359Z,82.17
2023-11-01T18:41:56.650Z,83.03
2023-11-01T18:45:00.961Z,84.13
2023-11-01T18:48:05.435Z,82.34
2023-11-01T18:51:47.440Z,83.50
2023-11-01T18:54:51.452Z,82.94
2023-11-01T18:57:55.684Z,83.48
2023-11-01T19:00:59.906Z,84.85
2023-11-01T19:04:04.122Z,84.12
2023-11-01T19:07:08.386Z,82.65
2023-11-01T19:10:14.514Z,83.37
2023-11-01T19:13:18.659Z,83.04
2023-11-01T19:16:23.138Z,82.32
2023-11-01T19:19:27.632Z,82.79
2023-11-01T19:22:31.844Z,82.20
2023-11-01T19:25:36.088Z,80.74
2023-11-01T19:28:40.326Z,83.16
2023-11-01T19:31:44.521Z,83.30
2023-11-01T19:34:48.865Z,81.48
2023-11-01T19:37:52.667Z,80.81
2023-11-01T19:40:56.825Z,81.93
2023-11-01T19:44:02.890Z,82.54
2023-11-01T19:47:07.613Z,81.51
2023-11-01T19:50:14.375Z,81.60
2023-11-01T19:53:18.308Z,79.92
2023-11-01T19:56:27.084Z,79.77
2023-11-01T19:59:34.241Z,79.21
2023-11-01T20:02:40.100Z,78.96
2023-11-01T20:05:44.406Z,77.52
2023-11-01T20:08:48.352Z,77.79
2023-11-01T20:11:53.519Z,77.71
2023-11-01T20:14:57.807Z,76.36
2023-11-01T20:18:02.154Z,77.18
2023-11-01T20:21:06.243Z,76.74
2023-11-01T20:24:10.292Z,75.39
2023-11-01T20:27:14.821Z,74.73
2023-11-01T20:30:19.362Z,73.89
2023-11-01T20:33:23.606Z,74.27
2023-11-01T20:36:28.233Z,73.79
2023-11-01T20:39:31.988Z,74.48
2023-11-01T20:42:37.561Z,73.66
2023-11-01T20:45:41.870Z,72.72
2023-11-01T20:48:46.290Z,71.84
2023-11-01T20:51:50.071Z,71.79
2023-11-01T20:54:58.507Z,71.08
2023-11-01T20:58:04.827Z,71.10
2023-11-01T21:01:10.641Z,71.04
2023-11-01T21:04:15.058Z,71.68
2023-11-01T21:07:21.102Z,72.29
2023-11-01T21:10:25.152Z,71.00
2023-11-01T21:13:29.141Z,72.03
2023-11-01T21:16:33.373Z,71.27
2023-11-01T21:19:38.453Z,71.04
2023-11-01T21:22:42.808Z,70.79
2023-11-01T21:25:47.074Z,69.60
2023-11-01T21:28:51.823Z,72.00
2023-11-01T21:31:56.166Z,70.51
2023-11-01T21:35:01.678Z,71.81
2023-11-01T21:38:07.748Z,70.51
2023-11-01T21:41:12.381Z,68.73
2023-11-01T21:44:30.845Z,68.88
2023-11-01T21:47:39.901Z,68.66
2023-11-01T21:50:50.633Z,67.08
2023-11-01T21:53:55.726Z,67.60
2023-11-01T21:57:00.431Z,68.25
2023-11-01T22:00:09.723Z,67.52
2023-11-01T22:03:13.912Z,67.29
2023-11-01T22:06:27.684Z,66.11
2023-11-01T22:09:31.897Z,66.80
2023-11-01T22:12:35.978Z,68.85
2023-11-01T22:15:40.142Z,67.84
2023-11-01T22:18:44.301Z,68.12
2023-11-01T22:21:48.669Z,67.69
2023-11-01T22:24:53.004Z,68.38
2023-11-01T22:28:00.826Z,69.08
2023-11-01T22:31:06.401Z,69.14
2023-11-01T22:34:12.705Z,67.26
2023-11-01T22:37:22.094Z,67.59
2023-11-01T22:40:27.203Z,66.66
2023-11-01T22:43:31.259Z,67.63
2023-11-01T22:46:35.526Z,69.84
2023-11-01T22:49:41.025Z,68.72
2023-11-01T22:52:45.363Z,67.78
2023-11-01T22:55:51.042Z,67.50
2023-11-01T22:58:55.158Z,68.54
2023-11-01T23:01:59.024Z,66.53
2023-11-01T23:05:03.841Z,68.35
2023-11-01T23:08:07.887Z,68.73
2023-11-01T23:11:12.218Z,68.25
2023-11-01T23:14:16.298Z,67.11
2023-11-01T23:17:20.705Z,67.32
2023-11-01T23:20:24.710Z,68.77
2023-11-01T23:23:32.700Z,68.00
2023-11-01T23:26:54.451Z,67.79
2023-11-01T23:29:59.365Z,68.20
2023-11-01T23:33:04.625Z,68.84
2023-11-01T23:36:13.946Z,67.67
2023-11-01T23:39:37.589Z,68.05
2023-11-01T23:42:41.904Z,68.43
2023-11-01T23:46:01.600Z,68.23
2023-11-01T23:49:07.633Z,68.14
2023-11-01T23:52:18.048Z,68.41
2023-11-01T23:55:22.023Z,68.43
2023-11-01T23:58:36.345Z,68.60
